Briefing drone pour Imphy

Rechercher une autre localisation

Conditions de vol :


Nous sommes le : Jeudi 29 septembre 2022
Il est 01:08 UTC (03:08 LT)

Lever de soleil : 05:16 UTC (07:16 LT)
Coucher de soleil : 17:58 UTC (19:58 LT)

Météo

L'essentiel des conditions de vol

VIGILANCE MÉTÉO FRANCE - Nièvre (58)
Vigilance Jaune : Pluie-inondation
CARTE TEMSI
CARTES DES FRONTS
METAR de LFQG
LFQG 281800Z AUTO 32002KT 9999 BKN045 OVC056 11/09 Q1002

Date d'émission: 28/09/2022
Heure d'émission: 18:00 UTC
Vent: 320° pour 2 KT (4 km/h)
Visibilité horizontale: > 10 km
Plafond :
- Nuages morcelés à 4500ft (1372m)
- Couvert à 5600ft (1707m)
Température: 11 °C
Point de rosée: 9 °C
Humidité: 87%
Pression (QNH): 1002 hPa
Prévision 24h pour Nevers (5 km)
Vent : 14° pour 1 KT (3 km/h)
Temperature Maxi: 7 °C
Temperature Min: 7 °C
Humidité : 94%
Condition : Nuageux



Warning: count(): Parameter must be an array or an object that implements Countable in /homepages/6/d509196549/htdocs/droneoxygene/briefing.php on line 743
WEBCAM POUR IMPHY

Réglementation

Voler en sécurité

CARTES AERONAUTIQUE 1/500.000
CARTE AZBA (Reseau basse altitude)
CARTES VAC (LFQG)
SUP AIP




Chargement des AIP...
NOTAM (IMPHY + Terrain à proximité / FIR )




Chargement des NOTAMS...
CONTACT PREFECTURE 58


Avertissement : Les données mises à disposition sont indicatives. Oxygène Drone ne pourra être tenu responsable de dégâts causés aux biens et aux personnes.